sensor_id;sensor_type;location;lat;lon;timestamp;temperature;humidity
10175;DHT22;18221;38.704;0.152;2023-10-31T00:02:20;17.50;99.90
10175;DHT22;18221;38.704;0.152;2023-10-31T00:04:48;17.50;99.90
10175;DHT22;18221;38.704;0.152;2023-10-31T00:07:17;17.50;99.90
10175;DHT22;18221;38.704;0.152;2023-10-31T00:09:45;17.60;99.90
10175;DHT22;18221;38.704;0.152;2023-10-31T00:12:13;17.60;99.90
10175;DHT22;18221;38.704;0.152;2023-10-31T00:14:41;17.50;99.90
10175;DHT22;18221;38.704;0.152;2023-10-31T00:17:09;17.60;99.90
10175;DHT22;18221;38.704;0.152;2023-10-31T00:19:39;17.60;99.90
10175;DHT22;18221;38.704;0.152;2023-10-31T00:22:07;17.60;99.90
10175;DHT22;18221;38.704;0.152;2023-10-31T00:24:35;17.60;99.90
10175;DHT22;18221;38.704;0.152;2023-10-31T00:27:03;17.60;99.90
10175;DHT22;18221;38.704;0.152;2023-10-31T00:29:31;17.50;99.90
10175;DHT22;18221;38.704;0.152;2023-10-31T00:31:59;17.50;99.90
10175;DHT22;18221;38.704;0.152;2023-10-31T00:34:27;17.50;99.90
10175;DHT22;18221;38.704;0.152;2023-10-31T00:36:56;17.50;99.90
10175;DHT22;18221;38.704;0.152;2023-10-31T00:39:24;17.50;99.90
10175;DHT22;18221;38.704;0.152;2023-10-31T00:41:52;17.50;99.90
10175;DHT22;18221;38.704;0.152;2023-10-31T00:44:20;17.50;99.90
10175;DHT22;18221;38.704;0.152;2023-10-31T00:46:48;17.50;99.90
10175;DHT22;18221;38.704;0.152;2023-10-31T00:49:16;17.50;99.90
10175;DHT22;18221;38.704;0.152;2023-10-31T00:51:44;17.50;99.90
10175;DHT22;18221;38.704;0.152;2023-10-31T00:54:14;17.50;99.90
10175;DHT22;18221;38.704;0.152;2023-10-31T00:56:42;17.50;99.90
10175;DHT22;18221;38.704;0.152;2023-10-31T00:59:10;17.50;99.90
10175;DHT22;18221;38.704;0.152;2023-10-31T01:01:38;17.40;99.90
10175;DHT22;18221;38.704;0.152;2023-10-31T01:04:06;17.40;99.90
10175;DHT22;18221;38.704;0.152;2023-10-31T01:06:34;17.40;99.90
10175;DHT22;18221;38.704;0.152;2023-10-31T01:09:08;17.40;99.90
10175;DHT22;18221;38.704;0.152;2023-10-31T01:11:38;17.30;99.90
10175;DHT22;18221;38.704;0.152;2023-10-31T01:14:07;17.30;99.90
10175;DHT22;18221;38.704;0.152;2023-10-31T01:16:34;17.20;99.90
10175;DHT22;18221;38.704;0.152;2023-10-31T01:19:02;17.20;99.90
10175;DHT22;18221;38.704;0.152;2023-10-31T01:21:31;17.20;99.90
10175;DHT22;18221;38.704;0.152;2023-10-31T01:23:59;17.20;99.90
10175;DHT22;18221;38.704;0.152;2023-10-31T01:26:27;17.20;99.90
10175;DHT22;18221;38.704;0.152;2023-10-31T01:28:56;17.10;99.90
10175;DHT22;18221;38.704;0.152;2023-10-31T01:31:25;17.10;99.90
10175;DHT22;18221;38.704;0.152;2023-10-31T01:33:54;17.20;99.90
10175;DHT22;18221;38.704;0.152;2023-10-31T01:36:26;17.20;99.90
10175;DHT22;18221;38.704;0.152;2023-10-31T01:38:54;17.10;99.90
10175;DHT22;18221;38.704;0.152;2023-10-31T01:41:22;17.10;99.90
10175;DHT22;18221;38.704;0.152;2023-10-31T01:43:50;17.10;99.90
10175;DHT22;18221;38.704;0.152;2023-10-31T01:46:20;17.00;99.90
10175;DHT22;18221;38.704;0.152;2023-10-31T01:48:48;17.00;99.90
10175;DHT22;18221;38.704;0.152;2023-10-31T01:51:16;17.00;99.90
10175;DHT22;18221;38.704;0.152;2023-10-31T01:53:44;17.00;99.90
10175;DHT22;18221;38.704;0.152;2023-10-31T01:56:13;17.00;99.90
10175;DHT22;18221;38.704;0.152;2023-10-31T01:58:41;17.00;99.90
10175;DHT22;18221;38.704;0.152;2023-10-31T02:01:10;16.90;99.90
10175;DHT22;18221;38.704;0.152;2023-10-31T02:03:40;16.90;99.90
10175;DHT22;18221;38.704;0.152;2023-10-31T02:06:08;16.90;99.90
10175;DHT22;18221;38.704;0.152;2023-10-31T02:08:36;16.90;99.90
10175;DHT22;18221;38.704;0.152;2023-10-31T02:11:04;16.80;99.90
10175;DHT22;18221;38.704;0.152;2023-10-31T02:13:36;16.80;99.90
10175;DHT22;18221;38.704;0.152;2023-10-31T02:16:05;16.90;99.90
10175;DHT22;18221;38.704;0.152;2023-10-31T02:18:33;16.90;99.90
10175;DHT22;18221;38.704;0.152;2023-10-31T02:21:04;16.90;99.90
10175;DHT22;18221;38.704;0.152;2023-10-31T02:23:33;16.90;99.90
10175;DHT22;18221;38.704;0.152;2023-10-31T02:26:02;16.90;99.90
10175;DHT22;18221;38.704;0.152;2023-10-31T02:28:30;16.90;99.90
10175;DHT22;18221;38.704;0.152;2023-10-31T02:30:58;16.90;99.90
10175;DHT22;18221;38.704;0.152;2023-10-31T02:33:26;16.90;99.90
10175;DHT22;18221;38.704;0.152;2023-10-31T02:35:54;16.90;99.90
10175;DHT22;18221;38.704;0.152;2023-10-31T02:38:22;16.90;99.90
10175;DHT22;18221;38.704;0.152;2023-10-31T02:40:52;16.90;99.90
10175;DHT22;18221;38.704;0.152;2023-10-31T02:43:20;16.80;99.90
10175;DHT22;18221;38.704;0.152;2023-10-31T02:45:47;16.80;99.90
10175;DHT22;18221;38.704;0.152;2023-10-31T02:48:15;16.80;99.90
10175;DHT22;18221;38.704;0.152;2023-10-31T02:50:43;16.80;99.90
10175;DHT22;18221;38.704;0.152;2023-10-31T02:53:11;16.80;99.90
10175;DHT22;18221;38.704;0.152;2023-10-31T02:55:39;16.80;99.90
10175;DHT22;18221;38.704;0.152;2023-10-31T02:58:08;16.80;99.90
10175;DHT22;18221;38.704;0.152;2023-10-31T03:00:36;16.80;99.90
10175;DHT22;18221;38.704;0.152;2023-10-31T03:03:04;16.70;99.90
10175;DHT22;18221;38.704;0.152;2023-10-31T03:05:32;16.80;99.90
10175;DHT22;18221;38.704;0.152;2023-10-31T03:08:00;16.70;99.90
10175;DHT22;18221;38.704;0.152;2023-10-31T03:10:28;16.70;99.90
10175;DHT22;18221;38.704;0.152;2023-10-31T03:12:56;16.70;99.90
10175;DHT22;18221;38.704;0.152;2023-10-31T03:15:26;16.70;99.90
10175;DHT22;18221;38.704;0.152;2023-10-31T03:17:54;16.70;99.90
10175;DHT22;18221;38.704;0.152;2023-10-31T03:20:22;16.70;99.90
10175;DHT22;18221;38.704;0.152;2023-10-31T03:22:50;16.60;99.90
10175;DHT22;18221;38.704;0.152;2023-10-31T03:25:18;16.70;99.90
10175;DHT22;18221;38.704;0.152;2023-10-31T03:27:47;16.70;99.90
10175;DHT22;18221;38.704;0.152;2023-10-31T03:30:15;16.70;99.90
10175;DHT22;18221;38.704;0.152;2023-10-31T03:32:44;16.70;99.90
10175;DHT22;18221;38.704;0.152;2023-10-31T03:35:12;16.70;99.90
10175;DHT22;18221;38.704;0.152;2023-10-31T03:37:42;16.70;99.90
10175;DHT22;18221;38.704;0.152;2023-10-31T03:40:14;16.70;99.90
10175;DHT22;18221;38.704;0.152;2023-10-31T03:42:42;16.70;99.90
10175;DHT22;18221;38.704;0.152;2023-10-31T03:45:10;16.70;99.90
10175;DHT22;18221;38.704;0.152;2023-10-31T03:47:38;16.40;99.90
10175;DHT22;18221;38.704;0.152;2023-10-31T03:50:09;16.70;99.90
10175;DHT22;18221;38.704;0.152;2023-10-31T03:52:37;16.70;99.90
10175;DHT22;18221;38.704;0.152;2023-10-31T03:55:06;16.70;99.90
10175;DHT22;18221;38.704;0.152;2023-10-31T03:57:34;16.60;99.90
10175;DHT22;18221;38.704;0.152;2023-10-31T04:00:03;16.60;99.90
10175;DHT22;18221;38.704;0.152;2023-10-31T04:02:33;16.60;99.90
10175;DHT22;18221;38.704;0.152;2023-10-31T04:05:01;16.60;99.90
10175;DHT22;18221;38.704;0.152;2023-10-31T04:07:30;16.60;99.90
10175;DHT22;18221;38.704;0.152;2023-10-31T04:09:58;16.60;99.90
10175;DHT22;18221;38.704;0.152;2023-10-31T04:12:26;16.50;99.90
10175;DHT22;18221;38.704;0.152;2023-10-31T04:14:54;16.50;99.90
10175;DHT22;18221;38.704;0.152;2023-10-31T04:17:22;16.50;99.90
10175;DHT22;18221;38.704;0.152;2023-10-31T04:19:51;16.50;99.90
10175;DHT22;18221;38.704;0.152;2023-10-31T04:22:19;16.50;99.90
10175;DHT22;18221;38.704;0.152;2023-10-31T04:24:48;16.50;99.90
10175;DHT22;18221;38.704;0.152;2023-10-31T04:27:16;16.50;99.90
10175;DHT22;18221;38.704;0.152;2023-10-31T04:29:44;16.50;99.90
10175;DHT22;18221;38.704;0.152;2023-10-31T04:32:12;16.50;99.90
10175;DHT22;18221;38.704;0.152;2023-10-31T04:34:40;16.50;99.90
10175;DHT22;18221;38.704;0.152;2023-10-31T04:37:08;16.50;99.90
10175;DHT22;18221;38.704;0.152;2023-10-31T04:39:36;16.60;99.90
10175;DHT22;18221;38.704;0.152;2023-10-31T04:42:06;16.60;99.90
10175;DHT22;18221;38.704;0.152;2023-10-31T04:44:34;16.60;99.90
10175;DHT22;18221;38.704;0.152;2023-10-31T04:47:02;16.60;99.90
10175;DHT22;18221;38.704;0.152;2023-10-31T04:49:30;16.60;99.90
10175;DHT22;18221;38.704;0.152;2023-10-31T04:51:58;16.70;99.90
10175;DHT22;18221;38.704;0.152;2023-10-31T04:54:26;16.70;99.90
10175;DHT22;18221;38.704;0.152;2023-10-31T04:56:54;15.70;99.90
10175;DHT22;18221;38.704;0.152;2023-10-31T04:59:24;16.80;99.90
10175;DHT22;18221;38.704;0.152;2023-10-31T05:01:52;16.80;99.90
10175;DHT22;18221;38.704;0.152;2023-10-31T05:04:21;16.70;99.90
10175;DHT22;18221;38.704;0.152;2023-10-31T05:06:49;16.70;99.90
10175;DHT22;18221;38.704;0.152;2023-10-31T05:09:17;16.70;99.90
10175;DHT22;18221;38.704;0.152;2023-10-31T05:11:46;16.60;99.90
10175;DHT22;18221;38.704;0.152;2023-10-31T05:14:14;16.60;99.90
10175;DHT22;18221;38.704;0.152;2023-10-31T05:16:43;16.60;99.90
10175;DHT22;18221;38.704;0.152;2023-10-31T05:19:11;16.50;99.90
10175;DHT22;18221;38.704;0.152;2023-10-31T05:21:40;16.50;99.90
10175;DHT22;18221;38.704;0.152;2023-10-31T05:24:08;16.50;99.90
10175;DHT22;18221;38.704;0.152;2023-10-31T05:26:36;16.50;99.90
10175;DHT22;18221;38.704;0.152;2023-10-31T05:29:06;16.50;99.90
10175;DHT22;18221;38.704;0.152;2023-10-31T05:31:34;16.50;99.90
10175;DHT22;18221;38.704;0.152;2023-10-31T05:34:04;16.50;99.90
10175;DHT22;18221;38.704;0.152;2023-10-31T05:36:32;16.40;99.90
10175;DHT22;18221;38.704;0.152;2023-10-31T05:39:00;16.40;99.90
10175;DHT22;18221;38.704;0.152;2023-10-31T05:41:29;16.40;99.90
10175;DHT22;18221;38.704;0.152;2023-10-31T05:43:57;16.40;99.90
10175;DHT22;18221;38.704;0.152;2023-10-31T05:46:25;16.30;99.90
10175;DHT22;18221;38.704;0.152;2023-10-31T05:48:53;16.30;99.90
10175;DHT22;18221;38.704;0.152;2023-10-31T05:51:23;16.30;99.90
10175;DHT22;18221;38.704;0.152;2023-10-31T05:53:52;16.30;99.90
10175;DHT22;18221;38.704;0.152;2023-10-31T05:56:20;16.30;99.90
10175;DHT22;18221;38.704;0.152;2023-10-31T05:58:48;16.30;99.90
10175;DHT22;18221;38.704;0.152;2023-10-31T06:01:16;16.30;99.90
10175;DHT22;18221;38.704;0.152;2023-10-31T06:03:44;16.40;99.90
10175;DHT22;18221;38.704;0.152;2023-10-31T06:06:13;16.30;99.90
10175;DHT22;18221;38.704;0.152;2023-10-31T06:08:42;16.30;99.90
10175;DHT22;18221;38.704;0.152;2023-10-31T06:11:12;16.30;99.90
10175;DHT22;18221;38.704;0.152;2023-10-31T06:13:39;16.30;99.90
10175;DHT22;18221;38.704;0.152;2023-10-31T06:16:07;16.30;99.90
10175;DHT22;18221;38.704;0.152;2023-10-31T06:18:38;16.30;99.90
10175;DHT22;18221;38.704;0.152;2023-10-31T06:21:07;16.30;99.90
10175;DHT22;18221;38.704;0.152;2023-10-31T06:23:39;16.30;99.90
10175;DHT22;18221;38.704;0.152;2023-10-31T06:26:10;16.30;99.90
10175;DHT22;18221;38.704;0.152;2023-10-31T06:28:37;16.30;99.90
10175;DHT22;18221;38.704;0.152;2023-10-31T06:31:06;16.30;99.90
10175;DHT22;18221;38.704;0.152;2023-10-31T06:33:34;16.30;99.90
10175;DHT22;18221;38.704;0.152;2023-10-31T06:36:02;16.30;99.90
10175;DHT22;18221;38.704;0.152;2023-10-31T06:38:32;16.30;99.90
10175;DHT22;18221;38.704;0.152;2023-10-31T06:41:00;16.30;99.90
10175;DHT22;18221;38.704;0.152;2023-10-31T06:43:30;16.30;99.90
10175;DHT22;18221;38.704;0.152;2023-10-31T06:45:58;16.30;99.90
10175;DHT22;18221;38.704;0.152;2023-10-31T06:48:28;16.30;99.90
10175;DHT22;18221;38.704;0.152;2023-10-31T06:50:56;16.30;99.90
10175;DHT22;18221;38.704;0.152;2023-10-31T06:53:24;16.30;99.90
10175;DHT22;18221;38.704;0.152;2023-10-31T06:55:52;16.30;99.90
10175;DHT22;18221;38.704;0.152;2023-10-31T06:58:20;16.30;99.90
10175;DHT22;18221;38.704;0.152;2023-10-31T07:00:49;16.30;99.90
10175;DHT22;18221;38.704;0.152;2023-10-31T07:03:17;16.30;99.90
10175;DHT22;18221;38.704;0.152;2023-10-31T07:05:45;16.30;99.90
10175;DHT22;18221;38.704;0.152;2023-10-31T07:08:13;16.40;99.90
10175;DHT22;18221;38.704;0.152;2023-10-31T07:10:41;16.40;99.90
10175;DHT22;18221;38.704;0.152;2023-10-31T07:13:09;16.50;99.90
10175;DHT22;18221;38.704;0.152;2023-10-31T07:15:37;16.50;99.90
10175;DHT22;18221;38.704;0.152;2023-10-31T07:18:07;16.50;99.90
10175;DHT22;18221;38.704;0.152;2023-10-31T07:20:35;16.50;99.90
10175;DHT22;18221;38.704;0.152;2023-10-31T07:23:03;16.60;99.90
10175;DHT22;18221;38.704;0.152;2023-10-31T07:25:31;16.60;99.90
10175;DHT22;18221;38.704;0.152;2023-10-31T07:27:59;16.60;99.90
10175;DHT22;18221;38.704;0.152;2023-10-31T07:30:27;16.60;99.90
10175;DHT22;18221;38.704;0.152;2023-10-31T07:32:55;16.70;99.90
10175;DHT22;18221;38.704;0.152;2023-10-31T07:35:25;16.30;99.90
10175;DHT22;18221;38.704;0.152;2023-10-31T07:37:52;16.70;99.90
10175;DHT22;18221;38.704;0.152;2023-10-31T07:40:20;16.60;99.90
10175;DHT22;18221;38.704;0.152;2023-10-31T07:42:48;16.70;99.90
10175;DHT22;18221;38.704;0.152;2023-10-31T07:45:16;16.70;99.90
10175;DHT22;18221;38.704;0.152;2023-10-31T07:47:44;16.70;99.90
10175;DHT22;18221;38.704;0.152;2023-10-31T07:50:12;16.70;99.90
10175;DHT22;18221;38.704;0.152;2023-10-31T07:52:41;16.80;99.90
10175;DHT22;18221;38.704;0.152;2023-10-31T07:55:12;16.80;99.90
10175;DHT22;18221;38.704;0.152;2023-10-31T07:57:40;16.80;99.90
10175;DHT22;18221;38.704;0.152;2023-10-31T08:00:10;16.90;99.90
10175;DHT22;18221;38.704;0.152;2023-10-31T08:02:39;16.90;99.90
10175;DHT22;18221;38.704;0.152;2023-10-31T08:05:08;17.00;99.90
10175;DHT22;18221;38.704;0.152;2023-10-31T08:07:37;17.00;99.90
10175;DHT22;18221;38.704;0.152;2023-10-31T08:10:07;17.10;99.90
10175;DHT22;18221;38.704;0.152;2023-10-31T08:12:35;17.10;99.90
10175;DHT22;18221;38.704;0.152;2023-10-31T08:15:05;17.10;99.90
10175;DHT22;18221;38.704;0.152;2023-10-31T08:17:33;17.20;99.90
10175;DHT22;18221;38.704;0.152;2023-10-31T08:20:01;17.10;99.90
10175;DHT22;18221;38.704;0.152;2023-10-31T08:22:30;17.20;99.90
10175;DHT22;18221;38.704;0.152;2023-10-31T08:24:58;17.20;99.90
10175;DHT22;18221;38.704;0.152;2023-10-31T08:27:27;17.20;99.90
10175;DHT22;18221;38.704;0.152;2023-10-31T08:29:55;17.20;99.90
10175;DHT22;18221;38.704;0.152;2023-10-31T08:32:23;17.30;99.90
10175;DHT22;18221;38.704;0.152;2023-10-31T08:34:51;17.40;99.90
10175;DHT22;18221;38.704;0.152;2023-10-31T08:37:22;17.40;99.90
10175;DHT22;18221;38.704;0.152;2023-10-31T08:39:50;17.60;99.90
10175;DHT22;18221;38.704;0.152;2023-10-31T08:42:18;17.70;99.90
10175;DHT22;18221;38.704;0.152;2023-10-31T08:44:47;17.80;99.90
10175;DHT22;18221;38.704;0.152;2023-10-31T08:47:15;17.80;99.90
10175;DHT22;18221;38.704;0.152;2023-10-31T08:49:44;17.80;99.90
10175;DHT22;18221;38.704;0.152;2023-10-31T08:52:12;17.90;99.90
10175;DHT22;18221;38.704;0.152;2023-10-31T08:54:40;17.90;99.90
10175;DHT22;18221;38.704;0.152;2023-10-31T08:57:08;17.90;99.90
10175;DHT22;18221;38.704;0.152;2023-10-31T08:59:36;18.00;99.90
10175;DHT22;18221;38.704;0.152;2023-10-31T09:02:07;18.10;99.90
10175;DHT22;18221;38.704;0.152;2023-10-31T09:04:34;18.20;99.90
10175;DHT22;18221;38.704;0.152;2023-10-31T09:07:02;18.30;99.90
10175;DHT22;18221;38.704;0.152;2023-10-31T09:09:30;18.30;99.90
10175;DHT22;18221;38.704;0.152;2023-10-31T09:11:58;18.20;99.90
10175;DHT22;18221;38.704;0.152;2023-10-31T09:14:26;18.20;99.90
10175;DHT22;18221;38.704;0.152;2023-10-31T09:16:54;18.20;99.90
10175;DHT22;18221;38.704;0.152;2023-10-31T09:19:23;18.20;99.90
10175;DHT22;18221;38.704;0.152;2023-10-31T09:21:51;18.20;99.90
10175;DHT22;18221;38.704;0.152;2023-10-31T09:24:19;18.20;99.90
10175;DHT22;18221;38.704;0.152;2023-10-31T09:26:48;18.20;99.90
10175;DHT22;18221;38.704;0.152;2023-10-31T09:29:16;18.20;99.90
10175;DHT22;18221;38.704;0.152;2023-10-31T09:31:44;18.20;99.90
10175;DHT22;18221;38.704;0.152;2023-10-31T09:34:13;18.20;99.90
10175;DHT22;18221;38.704;0.152;2023-10-31T09:36:43;18.30;99.90
10175;DHT22;18221;38.704;0.152;2023-10-31T09:39:11;18.30;99.90
10175;DHT22;18221;38.704;0.152;2023-10-31T09:41:39;18.40;99.90
10175;DHT22;18221;38.704;0.152;2023-10-31T09:44:07;18.50;99.90
10175;DHT22;18221;38.704;0.152;2023-10-31T09:46:35;18.60;99.90
10175;DHT22;18221;38.704;0.152;2023-10-31T09:49:04;18.70;99.90
10175;DHT22;18221;38.704;0.152;2023-10-31T09:51:33;18.80;99.90
10175;DHT22;18221;38.704;0.152;2023-10-31T09:54:05;18.90;99.90
10175;DHT22;18221;38.704;0.152;2023-10-31T09:56:35;18.90;99.90
10175;DHT22;18221;38.704;0.152;2023-10-31T09:59:04;19.00;99.90
10175;DHT22;18221;38.704;0.152;2023-10-31T10:01:32;19.00;99.90
10175;DHT22;18221;38.704;0.152;2023-10-31T10:04:00;19.00;99.90
10175;DHT22;18221;38.704;0.152;2023-10-31T10:06:28;19.00;99.90
10175;DHT22;18221;38.704;0.152;2023-10-31T10:08:57;19.00;99.90
10175;DHT22;18221;38.704;0.152;2023-10-31T10:11:26;19.00;99.90
10175;DHT22;18221;38.704;0.152;2023-10-31T10:13:54;19.10;99.90
10175;DHT22;18221;38.704;0.152;2023-10-31T10:16:31;19.20;99.90
10175;DHT22;18221;38.704;0.152;2023-10-31T10:19:14;19.20;99.90
10175;DHT22;18221;38.704;0.152;2023-10-31T10:21:49;19.30;99.90
10175;DHT22;18221;38.704;0.152;2023-10-31T10:24:20;19.40;99.90
10175;DHT22;18221;38.704;0.152;2023-10-31T10:26:50;19.30;99.90
10175;DHT22;18221;38.704;0.152;2023-10-31T10:29:18;17.20;99.90
10175;DHT22;18221;38.704;0.152;2023-10-31T10:31:46;19.30;99.90
10175;DHT22;18221;38.704;0.152;2023-10-31T10:34:15;19.30;99.90
10175;DHT22;18221;38.704;0.152;2023-10-31T10:36:46;19.40;99.90
10175;DHT22;18221;38.704;0.152;2023-10-31T10:39:18;19.40;99.90
10175;DHT22;18221;38.704;0.152;2023-10-31T10:41:53;19.40;99.90
10175;DHT22;18221;38.704;0.152;2023-10-31T10:44:31;19.40;99.90
10175;DHT22;18221;38.704;0.152;2023-10-31T10:47:02;19.40;99.90
10175;DHT22;18221;38.704;0.152;2023-10-31T10:49:33;19.30;99.90
10175;DHT22;18221;38.704;0.152;2023-10-31T10:52:15;19.40;99.90
10175;DHT22;18221;38.704;0.152;2023-10-31T10:54:51;19.50;99.90
10175;DHT22;18221;38.704;0.152;2023-10-31T10:57:31;19.60;99.90
10175;DHT22;18221;38.704;0.152;2023-10-31T11:00:05;19.60;99.90
10175;DHT22;18221;38.704;0.152;2023-10-31T11:02:39;19.60;99.90
10175;DHT22;18221;38.704;0.152;2023-10-31T11:05:09;19.70;99.90
10175;DHT22;18221;38.704;0.152;2023-10-31T11:07:38;19.80;99.90
10175;DHT22;18221;38.704;0.152;2023-10-31T11:10:08;19.90;99.90
10175;DHT22;18221;38.704;0.152;2023-10-31T11:12:38;20.10;99.90
10175;DHT22;18221;38.704;0.152;2023-10-31T11:15:10;20.30;99.90
10175;DHT22;18221;38.704;0.152;2023-10-31T11:17:42;20.30;99.90
10175;DHT22;18221;38.704;0.152;2023-10-31T11:20:13;20.40;99.90
10175;DHT22;18221;38.704;0.152;2023-10-31T11:22:44;20.40;99.90
10175;DHT22;18221;38.704;0.152;2023-10-31T11:25:17;20.40;99.90
10175;DHT22;18221;38.704;0.152;2023-10-31T11:27:47;20.40;99.90
10175;DHT22;18221;38.704;0.152;2023-10-31T11:30:27;20.40;99.90
10175;DHT22;18221;38.704;0.152;2023-10-31T11:32:58;20.40;99.90
10175;DHT22;18221;38.704;0.152;2023-10-31T11:35:29;20.40;99.90
10175;DHT22;18221;38.704;0.152;2023-10-31T11:38:02;20.50;99.90
10175;DHT22;18221;38.704;0.152;2023-10-31T11:40:35;20.50;99.90
10175;DHT22;18221;38.704;0.152;2023-10-31T11:43:08;20.50;99.90
10175;DHT22;18221;38.704;0.152;2023-10-31T11:45:41;20.50;99.90
10175;DHT22;18221;38.704;0.152;2023-10-31T11:48:13;20.30;99.90
10175;DHT22;18221;38.704;0.152;2023-10-31T11:50:41;20.20;99.90
10175;DHT22;18221;38.704;0.152;2023-10-31T11:53:11;20.10;99.90
10175;DHT22;18221;38.704;0.152;2023-10-31T11:55:41;20.00;99.90
10175;DHT22;18221;38.704;0.152;2023-10-31T11:58:16;20.10;99.90
10175;DHT22;18221;38.704;0.152;2023-10-31T12:00:46;20.10;99.90
10175;DHT22;18221;38.704;0.152;2023-10-31T12:03:16;20.20;99.90
10175;DHT22;18221;38.704;0.152;2023-10-31T12:05:53;20.20;99.90
10175;DHT22;18221;38.704;0.152;2023-10-31T12:08:26;20.20;99.90
10175;DHT22;18221;38.704;0.152;2023-10-31T12:11:04;20.30;99.90
10175;DHT22;18221;38.704;0.152;2023-10-31T12:13:35;20.40;99.90
10175;DHT22;18221;38.704;0.152;2023-10-31T12:16:05;20.50;99.90
10175;DHT22;18221;38.704;0.152;2023-10-31T12:18:35;20.60;99.90
10175;DHT22;18221;38.704;0.152;2023-10-31T12:21:05;20.60;99.90
10175;DHT22;18221;38.704;0.152;2023-10-31T12:23:34;20.60;99.90
10175;DHT22;18221;38.704;0.152;2023-10-31T12:26:03;20.70;99.90
10175;DHT22;18221;38.704;0.152;2023-10-31T12:28:31;20.70;99.90
10175;DHT22;18221;38.704;0.152;2023-10-31T12:31:04;20.50;99.90
10175;DHT22;18221;38.704;0.152;2023-10-31T12:33:33;20.50;99.90
10175;DHT22;18221;38.704;0.152;2023-10-31T12:36:02;20.40;99.90
10175;DHT22;18221;38.704;0.152;2023-10-31T12:38:30;20.30;99.90
10175;DHT22;18221;38.704;0.152;2023-10-31T12:40:59;20.30;99.90
10175;DHT22;18221;38.704;0.152;2023-10-31T12:43:27;20.30;99.90
10175;DHT22;18221;38.704;0.152;2023-10-31T12:45:57;20.30;99.90
10175;DHT22;18221;38.704;0.152;2023-10-31T12:48:25;20.30;99.90
10175;DHT22;18221;38.704;0.152;2023-10-31T12:51:06;20.40;99.90
10175;DHT22;18221;38.704;0.152;2023-10-31T12:53:35;20.40;99.90
10175;DHT22;18221;38.704;0.152;2023-10-31T12:56:04;20.50;99.90
10175;DHT22;18221;38.704;0.152;2023-10-31T12:58:32;20.60;99.90
10175;DHT22;18221;38.704;0.152;2023-10-31T13:01:02;20.60;99.90
10175;DHT22;18221;38.704;0.152;2023-10-31T13:03:48;20.50;99.90
10175;DHT22;18221;38.704;0.152;2023-10-31T13:06:19;20.50;99.90
10175;DHT22;18221;38.704;0.152;2023-10-31T13:08:47;20.40;99.90
10175;DHT22;18221;38.704;0.152;2023-10-31T13:11:16;20.30;99.90
10175;DHT22;18221;38.704;0.152;2023-10-31T13:13:48;20.10;99.90
10175;DHT22;18221;38.704;0.152;2023-10-31T13:16:18;19.90;99.90
10175;DHT22;18221;38.704;0.152;2023-10-31T13:18:46;19.90;99.90
10175;DHT22;18221;38.704;0.152;2023-10-31T13:21:15;19.90;99.90
10175;DHT22;18221;38.704;0.152;2023-10-31T13:23:43;19.90;99.90
10175;DHT22;18221;38.704;0.152;2023-10-31T13:26:15;19.90;99.90
10175;DHT22;18221;38.704;0.152;2023-10-31T13:28:45;20.00;99.90
10175;DHT22;18221;38.704;0.152;2023-10-31T13:31:13;19.90;99.90
10175;DHT22;18221;38.704;0.152;2023-10-31T13:33:44;19.90;99.90
10175;DHT22;18221;38.704;0.152;2023-10-31T13:36:12;19.80;99.90
10175;DHT22;18221;38.704;0.152;2023-10-31T13:38:40;19.70;99.90
10175;DHT22;18221;38.704;0.152;2023-10-31T13:41:08;19.70;99.90
10175;DHT22;18221;38.704;0.152;2023-10-31T13:43:36;19.60;99.90
10175;DHT22;18221;38.704;0.152;2023-10-31T13:46:05;19.50;99.90
10175;DHT22;18221;38.704;0.152;2023-10-31T13:48:33;19.50;99.90
10175;DHT22;18221;38.704;0.152;2023-10-31T13:51:02;19.40;99.90
10175;DHT22;18221;38.704;0.152;2023-10-31T13:53:31;19.30;99.90
10175;DHT22;18221;38.704;0.152;2023-10-31T13:55:59;19.30;99.90
10175;DHT22;18221;38.704;0.152;2023-10-31T13:58:27;19.20;99.90
10175;DHT22;18221;38.704;0.152;2023-10-31T14:00:55;19.20;99.90
10175;DHT22;18221;38.704;0.152;2023-10-31T14:03:23;19.20;99.90
10175;DHT22;18221;38.704;0.152;2023-10-31T14:05:51;19.30;99.90
10175;DHT22;18221;38.704;0.152;2023-10-31T14:08:20;19.30;99.90
10175;DHT22;18221;38.704;0.152;2023-10-31T14:10:48;19.30;99.90
10175;DHT22;18221;38.704;0.152;2023-10-31T14:13:17;19.40;99.90
10175;DHT22;18221;38.704;0.152;2023-10-31T14:15:46;19.40;99.90
10175;DHT22;18221;38.704;0.152;2023-10-31T14:18:14;19.40;99.90
10175;DHT22;18221;38.704;0.152;2023-10-31T14:20:43;19.40;99.90
10175;DHT22;18221;38.704;0.152;2023-10-31T14:23:11;19.20;99.90
10175;DHT22;18221;38.704;0.152;2023-10-31T14:25:40;19.50;99.90
10175;DHT22;18221;38.704;0.152;2023-10-31T14:28:08;19.60;99.90
10175;DHT22;18221;38.704;0.152;2023-10-31T14:30:37;19.60;99.90
10175;DHT22;18221;38.704;0.152;2023-10-31T14:33:04;19.50;99.90
10175;DHT22;18221;38.704;0.152;2023-10-31T14:35:32;19.50;99.90
10175;DHT22;18221;38.704;0.152;2023-10-31T14:38:01;19.50;99.90
10175;DHT22;18221;38.704;0.152;2023-10-31T14:40:29;19.50;99.90
10175;DHT22;18221;38.704;0.152;2023-10-31T14:42:58;19.50;99.90
10175;DHT22;18221;38.704;0.152;2023-10-31T14:45:27;19.50;99.90
10175;DHT22;18221;38.704;0.152;2023-10-31T14:47:55;19.50;99.90
10175;DHT22;18221;38.704;0.152;2023-10-31T14:50:23;19.50;99.90
10175;DHT22;18221;38.704;0.152;2023-10-31T14:52:51;19.50;99.90
10175;DHT22;18221;38.704;0.152;2023-10-31T14:55:19;19.40;99.90
10175;DHT22;18221;38.704;0.152;2023-10-31T14:57:47;19.40;99.90
10175;DHT22;18221;38.704;0.152;2023-10-31T15:00:16;19.40;99.90
10175;DHT22;18221;38.704;0.152;2023-10-31T15:02:45;19.30;99.90
10175;DHT22;18221;38.704;0.152;2023-10-31T15:05:12;19.30;99.90
10175;DHT22;18221;38.704;0.152;2023-10-31T15:07:40;19.30;99.90
10175;DHT22;18221;38.704;0.152;2023-10-31T15:10:09;19.30;99.90
10175;DHT22;18221;38.704;0.152;2023-10-31T15:12:37;19.30;99.90
10175;DHT22;18221;38.704;0.152;2023-10-31T15:15:06;19.20;99.90
10175;DHT22;18221;38.704;0.152;2023-10-31T15:17:35;19.20;99.90
10175;DHT22;18221;38.704;0.152;2023-10-31T15:20:05;19.10;99.90
10175;DHT22;18221;38.704;0.152;2023-10-31T15:22:35;19.10;99.90
10175;DHT22;18221;38.704;0.152;2023-10-31T15:25:04;19.10;99.90
10175;DHT22;18221;38.704;0.152;2023-10-31T15:27:32;19.00;99.90
10175;DHT22;18221;38.704;0.152;2023-10-31T15:30:00;19.00;99.90
10175;DHT22;18221;38.704;0.152;2023-10-31T15:32:29;18.90;99.90
10175;DHT22;18221;38.704;0.152;2023-10-31T15:34:58;18.90;99.90
10175;DHT22;18221;38.704;0.152;2023-10-31T15:37:26;18.70;99.90
10175;DHT22;18221;38.704;0.152;2023-10-31T15:39:54;18.80;99.90
10175;DHT22;18221;38.704;0.152;2023-10-31T15:42:22;18.80;99.90